Share

Grey Islet, British Columbia

Prince Rupert (CYPR) Elev 115 ft | 54.29 °N, 130.44 °W | Change Station

Current weather conditions updated 37 minutes ago

Light Rain
Light Rain
48 °F
Feels Like 48 °F
N
8
Wind Variable Wind from South
Sunrise 6:28 AM
Sunset 8:56 PM
Moon Waning Gibbous

Tomorrow is forecast to be Much Cooler than today. Isolated thunderstorms.

Pressure 29.81 in
Visibility 9.0 miles
Clouds Mostly Cloudy 4600 ft
Overcast 5500 ft
Dew Point 41 °F
Humidity 76%
Rainfall 0.00 in
Snow Depth Not available.
UV 2 out of 16
Pollen Not available.
Air Quality Not available.
Flu Activity Not available.
METAR CYPR 202300Z AUTO 18007KT 130V200 9SM -RA BKN046 OVC055 09/05 A2980 RMK MAX WND 10020KT AT 2201Z PRESFR SLP092

More Conditions Fewer Conditions

Pressure 29.81 in
Visibility 9.0 miles
Clouds Mostly Cloudy 4600 ft
Overcast 5500 ft
Dew Point 41 °F
Humidity 76%
Rainfall 0.00 in
Snow Depth Not available.
UV 2 out of 16
Pollen Not available.
Air Quality Not available.
Flu Activity Not available.
METAR CYPR 202300Z AUTO 18007KT 130V200 9SM -RA BKN046 OVC055 09/05 A2980 RMK MAX WND 10020KT AT 2201Z PRESFR SLP092

More Conditions Fewer Conditions

10-Day Weather Forecast

Almanac

Astronomy

Apr. 20, 2014 Rise Set
Actual Time 6:28 AM PDT 8:56 PM PDT
Civil Twilight 5:48 AM PDT 9:35 PM PDT
Nautical Twilight 4:58 AM PDT 10:27 PM PDT
Astronomical Twilight 3:56 AM PDT 11:30 PM PDT
Moon 2:01 AM PDT 10:37 AM PDT
Length of Visible Light 15h 47m
Length of Day
14h 27m
Tomorrow will be 4m 14s longer.
Waning Gibbous, 65% of the Moon is Illuminated
Today
Waning Gibbous
Apr 22
Last Quarter
Apr 29
New
May 6
First Quarter
May 14
Full

Today's Extremes

Country Highs Country Lows

Community

  • Easter Dance
    Easter Dance
  • spring skiing mount Baker WA
    spring skiing mount Baker WA
  • Morning Sun
    Morning Sun
  • Happy Easter
    Happy Easter
  • after rain
    after rain

WunderPhotos

Upload Photos

1,703,436 photos uploaded!

WunderBlogs® & News

Nearby

Snow Depth

Not available.

Coastal Water Temperatures

Place Temperature
No Stations Reporting

Earthquake Activity

City Distance Mag. Time & Date
No recent earthquake activity has been reported nearby.
Minimum magnitude displayed is 2.5.

Nearby Weather Stations

Station Location Temp. Dew Point Humidity Wind Precip. Elev Updated Type
Prince Rupert, Prince Rupert 53.1 °F 37 °F 54% SSE  at  3.0 mph 0.00 in / hr 98 ft 4:35 PM PDT Normal

Show More Stations Show Fewer Stations

What do you think?

We're not finished. Please let us know what you like, what you don't like, and what you are still missing.